Chattanooga, Oklahoma
Current Conditions -  °F | °C
As of 10:53 AM on Friday 28 Nov 2014 (Local Time) from KLAW Reporting Station
Clear Clear  
Wind Chill: 56°   Ceiling: Unl
Heat Index: 56°   Visibility: 10mi
Dew Point: 40°   Wind: 13mph
Humidity: 55%   Direction: 200°SSW
Pressure: 30.07"   Gusts: 24mph
Location:  34.42°N, 98.66°W
Report Text: KLAW 281653Z 20011G21KT 10SM CLR 13/04 A3007 RMK AO2 SLP186 T01330044
Loading
Personal Weather Stations






























Interactive Weather Map New forecast layout! Learn more

10-Day Weather Forecast

Advertisements
Track Severe Weather on mobile